sensor_id;sensor_type;location;lat;lon;timestamp;temperature;humidity
292;DHT22;23311;48.776;9.162;2022-08-14T00:02:21;19.00;76.20
292;DHT22;23311;48.776;9.162;2022-08-14T00:04:53;19.00;76.40
292;DHT22;23311;48.776;9.162;2022-08-14T00:07:22;18.90;76.40
292;DHT22;23311;48.776;9.162;2022-08-14T00:09:52;18.80;76.60
292;DHT22;23311;48.776;9.162;2022-08-14T00:12:29;18.80;76.60
292;DHT22;23311;48.776;9.162;2022-08-14T00:15:07;18.70;76.60
292;DHT22;23311;48.776;9.162;2022-08-14T00:17:41;18.80;76.40
292;DHT22;23311;48.776;9.162;2022-08-14T00:20:20;18.80;76.00
292;DHT22;23311;48.776;9.162;2022-08-14T00:22:51;19.10;75.20
292;DHT22;23311;48.776;9.162;2022-08-14T00:25:23;19.10;75.10
292;DHT22;23311;48.776;9.162;2022-08-14T00:28:10;18.90;75.50
292;DHT22;23311;48.776;9.162;2022-08-14T00:30:44;18.70;75.90
292;DHT22;23311;48.776;9.162;2022-08-14T00:33:13;18.60;76.20
292;DHT22;23311;48.776;9.162;2022-08-14T00:35:43;18.70;76.10
292;DHT22;23311;48.776;9.162;2022-08-14T00:38:32;18.70;76.20
292;DHT22;23311;48.776;9.162;2022-08-14T00:41:02;18.60;76.20
292;DHT22;23311;48.776;9.162;2022-08-14T00:43:31;18.60;76.70
292;DHT22;23311;48.776;9.162;2022-08-14T00:46:03;18.60;76.70
292;DHT22;23311;48.776;9.162;2022-08-14T00:48:34;18.50;76.90
292;DHT22;23311;48.776;9.162;2022-08-14T00:51:05;18.50;76.90
292;DHT22;23311;48.776;9.162;2022-08-14T00:53:37;18.50;77.00
292;DHT22;23311;48.776;9.162;2022-08-14T00:56:09;18.50;77.00
292;DHT22;23311;48.776;9.162;2022-08-14T00:58:41;18.50;77.00
292;DHT22;23311;48.776;9.162;2022-08-14T01:01:14;18.50;77.10
292;DHT22;23311;48.776;9.162;2022-08-14T01:03:45;18.40;77.50
292;DHT22;23311;48.776;9.162;2022-08-14T01:06:18;18.40;77.90
292;DHT22;23311;48.776;9.162;2022-08-14T01:08:48;18.30;78.10
292;DHT22;23311;48.776;9.162;2022-08-14T01:11:26;18.30;78.00
292;DHT22;23311;48.776;9.162;2022-08-14T01:14:03;18.10;78.40
292;DHT22;23311;48.776;9.162;2022-08-14T01:16:51;17.90;78.70
292;DHT22;23311;48.776;9.162;2022-08-14T01:19:22;17.80;79.20
292;DHT22;23311;48.776;9.162;2022-08-14T01:22:11;17.80;79.30
292;DHT22;23311;48.776;9.162;2022-08-14T01:24:45;17.80;79.30
292;DHT22;23311;48.776;9.162;2022-08-14T01:27:18;17.90;79.10
292;DHT22;23311;48.776;9.162;2022-08-14T01:29:50;18.00;78.90
292;DHT22;23311;48.776;9.162;2022-08-14T01:32:31;17.90;78.80
292;DHT22;23311;48.776;9.162;2022-08-14T01:35:08;17.90;79.00
292;DHT22;23311;48.776;9.162;2022-08-14T01:37:58;18.00;79.00
292;DHT22;23311;48.776;9.162;2022-08-14T01:40:27;18.20;78.20
292;DHT22;23311;48.776;9.162;2022-08-14T01:43:08;18.00;78.00
292;DHT22;23311;48.776;9.162;2022-08-14T01:45:41;17.80;78.30
292;DHT22;23311;48.776;9.162;2022-08-14T01:48:23;17.70;78.60
292;DHT22;23311;48.776;9.162;2022-08-14T01:50:56;17.60;78.60
292;DHT22;23311;48.776;9.162;2022-08-14T01:53:28;17.50;79.40
292;DHT22;23311;48.776;9.162;2022-08-14T01:56:03;17.40;79.70
292;DHT22;23311;48.776;9.162;2022-08-14T01:58:44;17.40;79.80
292;DHT22;23311;48.776;9.162;2022-08-14T02:01:24;17.40;79.70
292;DHT22;23311;48.776;9.162;2022-08-14T02:03:52;17.40;80.00
292;DHT22;23311;48.776;9.162;2022-08-14T02:06:23;17.30;80.60
292;DHT22;23311;48.776;9.162;2022-08-14T02:09:02;17.30;80.80
292;DHT22;23311;48.776;9.162;2022-08-14T02:11:49;17.20;81.00
292;DHT22;23311;48.776;9.162;2022-08-14T02:14:20;17.20;81.30
292;DHT22;23311;48.776;9.162;2022-08-14T02:16:59;17.20;81.60
292;DHT22;23311;48.776;9.162;2022-08-14T02:19:29;17.10;82.00
292;DHT22;23311;48.776;9.162;2022-08-14T02:21:59;17.20;81.80
292;DHT22;23311;48.776;9.162;2022-08-14T02:24:30;17.10;81.90
292;DHT22;23311;48.776;9.162;2022-08-14T02:27:10;17.10;81.90
292;DHT22;23311;48.776;9.162;2022-08-14T02:29:58;17.10;82.00
292;DHT22;23311;48.776;9.162;2022-08-14T02:32:30;17.10;82.00
292;DHT22;23311;48.776;9.162;2022-08-14T02:35:05;17.10;82.00
292;DHT22;23311;48.776;9.162;2022-08-14T02:37:36;17.00;82.20
292;DHT22;23311;48.776;9.162;2022-08-14T02:40:17;17.10;82.20
292;DHT22;23311;48.776;9.162;2022-08-14T02:42:45;17.00;82.10
292;DHT22;23311;48.776;9.162;2022-08-14T02:45:23;16.90;82.80
292;DHT22;23311;48.776;9.162;2022-08-14T02:48:04;17.00;82.80
292;DHT22;23311;48.776;9.162;2022-08-14T02:50:53;17.10;82.30
292;DHT22;23311;48.776;9.162;2022-08-14T02:53:21;17.00;82.30
292;DHT22;23311;48.776;9.162;2022-08-14T02:55:51;17.10;82.30
292;DHT22;23311;48.776;9.162;2022-08-14T02:58:21;17.10;82.30
292;DHT22;23311;48.776;9.162;2022-08-14T03:00:57;17.10;82.30
292;DHT22;23311;48.776;9.162;2022-08-14T03:03:27;17.10;82.30
292;DHT22;23311;48.776;9.162;2022-08-14T03:05:58;16.90;82.40
292;DHT22;23311;48.776;9.162;2022-08-14T03:08:26;16.80;83.00
292;DHT22;23311;48.776;9.162;2022-08-14T03:10:59;16.80;83.20
292;DHT22;23311;48.776;9.162;2022-08-14T03:13:34;16.90;83.00
292;DHT22;23311;48.776;9.162;2022-08-14T03:16:05;16.90;83.20
292;DHT22;23311;48.776;9.162;2022-08-14T03:18:47;16.90;82.80
292;DHT22;23311;48.776;9.162;2022-08-14T03:21:20;16.80;83.00
292;DHT22;23311;48.776;9.162;2022-08-14T03:23:51;16.80;83.30
292;DHT22;23311;48.776;9.162;2022-08-14T03:26:27;16.70;83.50
292;DHT22;23311;48.776;9.162;2022-08-14T03:28:56;16.70;83.80
292;DHT22;23311;48.776;9.162;2022-08-14T03:31:27;16.60;83.90
292;DHT22;23311;48.776;9.162;2022-08-14T03:33:57;16.60;84.00
292;DHT22;23311;48.776;9.162;2022-08-14T03:36:26;16.70;84.00
292;DHT22;23311;48.776;9.162;2022-08-14T03:39:18;16.60;83.90
292;DHT22;23311;48.776;9.162;2022-08-14T03:41:52;16.50;84.30
292;DHT22;23311;48.776;9.162;2022-08-14T03:44:21;16.60;84.40
292;DHT22;23311;48.776;9.162;2022-08-14T03:47:10;16.70;84.50
292;DHT22;23311;48.776;9.162;2022-08-14T03:49:41;16.60;84.40
292;DHT22;23311;48.776;9.162;2022-08-14T03:52:15;16.50;84.90
292;DHT22;23311;48.776;9.162;2022-08-14T03:55:04;16.40;85.20
292;DHT22;23311;48.776;9.162;2022-08-14T03:57:35;16.40;85.60
292;DHT22;23311;48.776;9.162;2022-08-14T04:00:05;16.40;85.70
292;DHT22;23311;48.776;9.162;2022-08-14T04:02:56;16.30;86.00
292;DHT22;23311;48.776;9.162;2022-08-14T04:05:25;16.30;86.30
292;DHT22;23311;48.776;9.162;2022-08-14T04:07:53;16.20;86.50
292;DHT22;23311;48.776;9.162;2022-08-14T04:10:41;16.40;86.30
292;DHT22;23311;48.776;9.162;2022-08-14T04:13:12;16.30;86.10
292;DHT22;23311;48.776;9.162;2022-08-14T04:15:44;16.30;86.20
292;DHT22;23311;48.776;9.162;2022-08-14T04:18:27;16.30;86.20
292;DHT22;23311;48.776;9.162;2022-08-14T04:21:00;16.40;86.10
292;DHT22;23311;48.776;9.162;2022-08-14T04:23:30;16.40;86.30
292;DHT22;23311;48.776;9.162;2022-08-14T04:26:01;16.40;86.20
292;DHT22;23311;48.776;9.162;2022-08-14T04:28:31;16.50;85.60
292;DHT22;23311;48.776;9.162;2022-08-14T04:31:20;16.80;84.80
292;DHT22;23311;48.776;9.162;2022-08-14T04:34:08;17.10;83.60
292;DHT22;23311;48.776;9.162;2022-08-14T04:36:46;17.50;82.60
292;DHT22;23311;48.776;9.162;2022-08-14T04:39:33;17.60;81.80
292;DHT22;23311;48.776;9.162;2022-08-14T04:42:24;17.60;81.50
292;DHT22;23311;48.776;9.162;2022-08-14T04:45:19;17.50;81.90
292;DHT22;23311;48.776;9.162;2022-08-14T04:47:47;17.40;82.00
292;DHT22;23311;48.776;9.162;2022-08-14T04:50:36;17.30;82.60
292;DHT22;23311;48.776;9.162;2022-08-14T04:53:12;17.30;82.70
292;DHT22;23311;48.776;9.162;2022-08-14T04:55:42;17.30;82.60
292;DHT22;23311;48.776;9.162;2022-08-14T04:58:19;17.40;82.40
292;DHT22;23311;48.776;9.162;2022-08-14T05:01:02;17.50;82.40
292;DHT22;23311;48.776;9.162;2022-08-14T05:03:38;17.60;82.20
292;DHT22;23311;48.776;9.162;2022-08-14T05:06:09;17.70;81.90
292;DHT22;23311;48.776;9.162;2022-08-14T05:08:57;17.80;81.50
292;DHT22;23311;48.776;9.162;2022-08-14T05:11:26;17.90;81.30
292;DHT22;23311;48.776;9.162;2022-08-14T05:14:02;18.00;81.00
292;DHT22;23311;48.776;9.162;2022-08-14T05:16:52;18.10;80.70
292;DHT22;23311;48.776;9.162;2022-08-14T05:19:28;18.30;80.50
292;DHT22;23311;48.776;9.162;2022-08-14T05:21:59;18.40;80.10
292;DHT22;23311;48.776;9.162;2022-08-14T05:24:45;18.50;79.70
292;DHT22;23311;48.776;9.162;2022-08-14T05:27:17;18.70;79.30
292;DHT22;23311;48.776;9.162;2022-08-14T05:29:52;18.80;79.10
292;DHT22;23311;48.776;9.162;2022-08-14T05:32:24;18.80;78.80
292;DHT22;23311;48.776;9.162;2022-08-14T05:34:55;18.90;78.60
292;DHT22;23311;48.776;9.162;2022-08-14T05:37:25;18.90;78.40
292;DHT22;23311;48.776;9.162;2022-08-14T05:39:56;19.00;78.20
292;DHT22;23311;48.776;9.162;2022-08-14T05:42:24;19.00;78.30
292;DHT22;23311;48.776;9.162;2022-08-14T05:45:01;18.90;78.10
292;DHT22;23311;48.776;9.162;2022-08-14T05:47:32;19.00;78.00
292;DHT22;23311;48.776;9.162;2022-08-14T05:50:09;19.10;77.80
292;DHT22;23311;48.776;9.162;2022-08-14T05:52:45;19.20;77.40
292;DHT22;23311;48.776;9.162;2022-08-14T05:55:13;19.30;77.40
292;DHT22;23311;48.776;9.162;2022-08-14T05:57:47;19.30;77.30
292;DHT22;23311;48.776;9.162;2022-08-14T06:00:21;19.50;77.20
292;DHT22;23311;48.776;9.162;2022-08-14T06:02:58;19.60;76.70
292;DHT22;23311;48.776;9.162;2022-08-14T06:05:32;19.70;76.40
292;DHT22;23311;48.776;9.162;2022-08-14T06:08:05;19.90;76.10
292;DHT22;23311;48.776;9.162;2022-08-14T06:10:47;19.80;76.10
292;DHT22;23311;48.776;9.162;2022-08-14T06:13:16;19.60;76.80
292;DHT22;23311;48.776;9.162;2022-08-14T06:15:45;19.70;76.80
292;DHT22;23311;48.776;9.162;2022-08-14T06:18:15;19.80;76.70
292;DHT22;23311;48.776;9.162;2022-08-14T06:20:44;19.80;76.40
292;DHT22;23311;48.776;9.162;2022-08-14T06:23:12;19.80;76.40
292;DHT22;23311;48.776;9.162;2022-08-14T06:25:45;19.80;76.40
292;DHT22;23311;48.776;9.162;2022-08-14T06:28:21;19.90;76.20
292;DHT22;23311;48.776;9.162;2022-08-14T06:30:54;20.10;75.60
292;DHT22;23311;48.776;9.162;2022-08-14T06:33:24;20.30;75.30
292;DHT22;23311;48.776;9.162;2022-08-14T06:36:13;20.50;74.80
292;DHT22;23311;48.776;9.162;2022-08-14T06:38:44;20.60;74.60
292;DHT22;23311;48.776;9.162;2022-08-14T06:41:16;20.80;74.00
292;DHT22;23311;48.776;9.162;2022-08-14T06:44:02;21.00;73.70
292;DHT22;23311;48.776;9.162;2022-08-14T06:46:30;21.20;73.20
292;DHT22;23311;48.776;9.162;2022-08-14T06:49:04;21.40;72.80
292;DHT22;23311;48.776;9.162;2022-08-14T06:51:35;21.90;71.70
292;DHT22;23311;48.776;9.162;2022-08-14T06:54:10;23.30;68.80
292;DHT22;23311;48.776;9.162;2022-08-14T06:56:38;25.30;65.30
292;DHT22;23311;48.776;9.162;2022-08-14T06:59:13;27.50;60.90
292;DHT22;23311;48.776;9.162;2022-08-14T07:01:45;28.50;58.70
292;DHT22;23311;48.776;9.162;2022-08-14T07:04:40;29.70;56.60
292;DHT22;23311;48.776;9.162;2022-08-14T07:07:35;30.40;55.00
292;DHT22;23311;48.776;9.162;2022-08-14T07:10:05;31.00;53.90
292;DHT22;23311;48.776;9.162;2022-08-14T07:12:43;31.60;52.90
292;DHT22;23311;48.776;9.162;2022-08-14T07:15:29;32.10;52.20
292;DHT22;23311;48.776;9.162;2022-08-14T07:18:00;32.20;51.50
292;DHT22;23311;48.776;9.162;2022-08-14T07:20:32;31.30;52.50
292;DHT22;23311;48.776;9.162;2022-08-14T07:23:02;31.30;52.60
292;DHT22;23311;48.776;9.162;2022-08-14T07:25:36;30.90;53.10
292;DHT22;23311;48.776;9.162;2022-08-14T07:28:09;31.00;53.20
292;DHT22;23311;48.776;9.162;2022-08-14T07:30:46;31.60;52.40
292;DHT22;23311;48.776;9.162;2022-08-14T07:33:18;32.00;51.90
292;DHT22;23311;48.776;9.162;2022-08-14T07:35:58;32.50;51.50
292;DHT22;23311;48.776;9.162;2022-08-14T07:38:27;32.60;51.60
292;DHT22;23311;48.776;9.162;2022-08-14T07:41:04;32.70;51.30
292;DHT22;23311;48.776;9.162;2022-08-14T07:43:41;32.50;51.20
292;DHT22;23311;48.776;9.162;2022-08-14T07:46:18;32.90;51.00
292;DHT22;23311;48.776;9.162;2022-08-14T07:48:54;33.80;49.70
292;DHT22;23311;48.776;9.162;2022-08-14T07:51:24;33.70;49.70
292;DHT22;23311;48.776;9.162;2022-08-14T07:54:04;33.30;49.70
292;DHT22;23311;48.776;9.162;2022-08-14T07:56:38;34.40;47.60
292;DHT22;23311;48.776;9.162;2022-08-14T07:59:16;33.60;48.00
292;DHT22;23311;48.776;9.162;2022-08-14T08:02:08;33.80;48.00
292;DHT22;23311;48.776;9.162;2022-08-14T08:04:47;33.80;48.10
292;DHT22;23311;48.776;9.162;2022-08-14T08:07:22;33.40;48.60
292;DHT22;23311;48.776;9.162;2022-08-14T08:09:57;34.00;47.60
292;DHT22;23311;48.776;9.162;2022-08-14T08:12:27;34.40;47.20
292;DHT22;23311;48.776;9.162;2022-08-14T08:14:59;34.70;46.50
292;DHT22;23311;48.776;9.162;2022-08-14T08:17:35;34.90;46.30
292;DHT22;23311;48.776;9.162;2022-08-14T08:20:22;35.10;45.70
292;DHT22;23311;48.776;9.162;2022-08-14T08:22:56;35.10;45.30
292;DHT22;23311;48.776;9.162;2022-08-14T08:25:33;34.30;45.90
292;DHT22;23311;48.776;9.162;2022-08-14T08:28:08;33.90;46.30
292;DHT22;23311;48.776;9.162;2022-08-14T08:30:52;33.70;46.00
292;DHT22;23311;48.776;9.162;2022-08-14T08:33:23;33.60;46.10
292;DHT22;23311;48.776;9.162;2022-08-14T08:35:59;34.00;45.70
292;DHT22;23311;48.776;9.162;2022-08-14T08:38:30;34.20;45.40
292;DHT22;23311;48.776;9.162;2022-08-14T08:41:18;33.70;45.90
292;DHT22;23311;48.776;9.162;2022-08-14T08:43:47;33.30;46.30
292;DHT22;23311;48.776;9.162;2022-08-14T08:46:19;33.90;45.70
292;DHT22;23311;48.776;9.162;2022-08-14T08:48:51;33.50;45.90
292;DHT22;23311;48.776;9.162;2022-08-14T08:51:21;33.20;45.90
292;DHT22;23311;48.776;9.162;2022-08-14T08:53:59;33.10;45.70
292;DHT22;23311;48.776;9.162;2022-08-14T08:56:35;33.70;45.40
292;DHT22;23311;48.776;9.162;2022-08-14T08:59:17;33.80;45.20
292;DHT22;23311;48.776;9.162;2022-08-14T09:01:48;34.40;44.30
292;DHT22;23311;48.776;9.162;2022-08-14T09:04:22;34.20;44.70
292;DHT22;23311;48.776;9.162;2022-08-14T09:06:52;34.10;44.50
292;DHT22;23311;48.776;9.162;2022-08-14T09:09:38;34.20;44.10
292;DHT22;23311;48.776;9.162;2022-08-14T09:12:25;34.20;44.10
292;DHT22;23311;48.776;9.162;2022-08-14T09:15:00;34.50;44.10
292;DHT22;23311;48.776;9.162;2022-08-14T09:17:29;34.90;43.90
292;DHT22;23311;48.776;9.162;2022-08-14T09:19:57;35.50;43.70
292;DHT22;23311;48.776;9.162;2022-08-14T09:22:30;35.80;43.10
292;DHT22;23311;48.776;9.162;2022-08-14T09:25:05;35.10;43.80
292;DHT22;23311;48.776;9.162;2022-08-14T09:27:34;33.90;45.40
292;DHT22;23311;48.776;9.162;2022-08-14T09:30:03;34.40;45.10
292;DHT22;23311;48.776;9.162;2022-08-14T09:32:49;34.20;45.60
292;DHT22;23311;48.776;9.162;2022-08-14T09:35:46;34.40;45.30
292;DHT22;23311;48.776;9.162;2022-08-14T09:38:27;34.70;45.10
292;DHT22;23311;48.776;9.162;2022-08-14T09:41:08;34.30;45.50
292;DHT22;23311;48.776;9.162;2022-08-14T09:43:44;33.80;46.20
292;DHT22;23311;48.776;9.162;2022-08-14T09:46:14;34.60;45.50
292;DHT22;23311;48.776;9.162;2022-08-14T09:48:57;35.40;44.40
292;DHT22;23311;48.776;9.162;2022-08-14T09:51:28;35.60;44.20
292;DHT22;23311;48.776;9.162;2022-08-14T09:54:08;36.00;43.30
292;DHT22;23311;48.776;9.162;2022-08-14T09:56:51;34.70;44.30
292;DHT22;23311;48.776;9.162;2022-08-14T09:59:25;33.50;46.00
292;DHT22;23311;48.776;9.162;2022-08-14T10:02:02;34.00;45.60
292;DHT22;23311;48.776;9.162;2022-08-14T10:04:35;35.20;44.40
292;DHT22;23311;48.776;9.162;2022-08-14T10:07:12;36.00;43.50
292;DHT22;23311;48.776;9.162;2022-08-14T10:09:46;36.70;43.00
292;DHT22;23311;48.776;9.162;2022-08-14T10:12:42;36.90;42.40
292;DHT22;23311;48.776;9.162;2022-08-14T10:15:19;35.90;43.20
292;DHT22;23311;48.776;9.162;2022-08-14T10:18:00;36.20;43.10
292;DHT22;23311;48.776;9.162;2022-08-14T10:20:31;36.50;42.90
292;DHT22;23311;48.776;9.162;2022-08-14T10:23:09;36.80;42.60
292;DHT22;23311;48.776;9.162;2022-08-14T10:25:45;35.70;43.60
292;DHT22;23311;48.776;9.162;2022-08-14T10:28:18;36.00;43.20
292;DHT22;23311;48.776;9.162;2022-08-14T10:31:16;36.10;43.20
292;DHT22;23311;48.776;9.162;2022-08-14T10:34:00;35.80;43.30
292;DHT22;23311;48.776;9.162;2022-08-14T10:36:40;35.20;43.80
292;DHT22;23311;48.776;9.162;2022-08-14T10:39:17;35.80;42.90
292;DHT22;23311;48.776;9.162;2022-08-14T10:41:47;35.30;43.00
292;DHT22;23311;48.776;9.162;2022-08-14T10:44:22;34.90;44.00
292;DHT22;23311;48.776;9.162;2022-08-14T10:46:55;35.80;43.50
292;DHT22;23311;48.776;9.162;2022-08-14T10:49:55;35.80;43.10
292;DHT22;23311;48.776;9.162;2022-08-14T10:52:27;35.80;42.90
292;DHT22;23311;48.776;9.162;2022-08-14T10:55:07;36.40;42.50
292;DHT22;23311;48.776;9.162;2022-08-14T10:57:48;36.70;42.20
292;DHT22;23311;48.776;9.162;2022-08-14T11:00:20;35.60;42.90
292;DHT22;23311;48.776;9.162;2022-08-14T11:03:02;35.10;43.70
292;DHT22;23311;48.776;9.162;2022-08-14T11:05:38;35.00;43.60
292;DHT22;23311;48.776;9.162;2022-08-14T11:08:08;35.60;43.10
292;DHT22;23311;48.776;9.162;2022-08-14T11:10:41;35.70;43.10
292;DHT22;23311;48.776;9.162;2022-08-14T11:13:15;35.60;43.20
292;DHT22;23311;48.776;9.162;2022-08-14T11:15:46;35.60;43.00
292;DHT22;23311;48.776;9.162;2022-08-14T11:18:15;35.10;43.20
292;DHT22;23311;48.776;9.162;2022-08-14T11:20:58;35.20;43.20
292;DHT22;23311;48.776;9.162;2022-08-14T11:23:29;35.40;42.90
292;DHT22;23311;48.776;9.162;2022-08-14T11:26:06;35.30;43.20
292;DHT22;23311;48.776;9.162;2022-08-14T11:28:39;35.40;42.50
292;DHT22;23311;48.776;9.162;2022-08-14T11:31:17;35.20;42.80
292;DHT22;23311;48.776;9.162;2022-08-14T11:33:49;34.90;43.30
292;DHT22;23311;48.776;9.162;2022-08-14T11:36:25;34.90;43.50
292;DHT22;23311;48.776;9.162;2022-08-14T11:39:18;34.90;43.70
292;DHT22;23311;48.776;9.162;2022-08-14T11:42:02;34.60;43.80
292;DHT22;23311;48.776;9.162;2022-08-14T11:44:51;34.70;43.80
292;DHT22;23311;48.776;9.162;2022-08-14T11:47:24;34.20;43.60
292;DHT22;23311;48.776;9.162;2022-08-14T11:49:56;34.40;43.90
292;DHT22;23311;48.776;9.162;2022-08-14T11:52:33;34.30;43.90
292;DHT22;23311;48.776;9.162;2022-08-14T11:55:08;34.30;43.90
292;DHT22;23311;48.776;9.162;2022-08-14T11:57:39;34.40;43.70
292;DHT22;23311;48.776;9.162;2022-08-14T12:00:10;34.00;44.40
292;DHT22;23311;48.776;9.162;2022-08-14T12:02:50;34.40;44.20
292;DHT22;23311;48.776;9.162;2022-08-14T12:05:32;34.60;43.70
292;DHT22;23311;48.776;9.162;2022-08-14T12:08:03;35.00;43.10
292;DHT22;23311;48.776;9.162;2022-08-14T12:10:40;35.50;42.60
292;DHT22;23311;48.776;9.162;2022-08-14T12:13:10;35.90;42.00
292;DHT22;23311;48.776;9.162;2022-08-14T12:15:45;35.40;41.90
292;DHT22;23311;48.776;9.162;2022-08-14T12:18:28;35.40;41.90
292;DHT22;23311;48.776;9.162;2022-08-14T12:20:58;34.90;42.00
292;DHT22;23311;48.776;9.162;2022-08-14T12:23:45;34.70;42.00
292;DHT22;23311;48.776;9.162;2022-08-14T12:26:18;35.00;41.60
292;DHT22;23311;48.776;9.162;2022-08-14T12:29:07;35.10;41.90
292;DHT22;23311;48.776;9.162;2022-08-14T12:31:39;35.40;41.40
292;DHT22;23311;48.776;9.162;2022-08-14T12:34:14;35.70;41.60
292;DHT22;23311;48.776;9.162;2022-08-14T12:36:46;36.50;41.10
292;DHT22;23311;48.776;9.162;2022-08-14T12:39:20;36.60;41.30
292;DHT22;23311;48.776;9.162;2022-08-14T12:41:50;36.30;40.90
292;DHT22;23311;48.776;9.162;2022-08-14T12:44:29;36.20;40.50
292;DHT22;23311;48.776;9.162;2022-08-14T12:47:03;35.80;40.60
292;DHT22;23311;48.776;9.162;2022-08-14T12:49:33;35.60;41.00
292;DHT22;23311;48.776;9.162;2022-08-14T12:52:03;36.00;40.20
292;DHT22;23311;48.776;9.162;2022-08-14T12:54:43;36.30;39.60
292;DHT22;23311;48.776;9.162;2022-08-14T12:57:36;36.40;39.40
292;DHT22;23311;48.776;9.162;2022-08-14T13:00:08;36.80;39.00
292;DHT22;23311;48.776;9.162;2022-08-14T13:02:51;36.50;39.80
292;DHT22;23311;48.776;9.162;2022-08-14T13:05:25;36.60;39.20
292;DHT22;23311;48.776;9.162;2022-08-14T13:07:55;36.20;39.50
292;DHT22;23311;48.776;9.162;2022-08-14T13:10:26;36.60;39.30
292;DHT22;23311;48.776;9.162;2022-08-14T13:13:15;36.60;39.20
292;DHT22;23311;48.776;9.162;2022-08-14T13:15:45;36.80;38.70
292;DHT22;23311;48.776;9.162;2022-08-14T13:18:23;36.40;39.00
292;DHT22;23311;48.776;9.162;2022-08-14T13:20:55;36.70;38.30
292;DHT22;23311;48.776;9.162;2022-08-14T13:23:31;36.20;38.60
292;DHT22;23311;48.776;9.162;2022-08-14T13:26:03;36.80;37.90
292;DHT22;23311;48.776;9.162;2022-08-14T13:28:32;36.60;38.20
292;DHT22;23311;48.776;9.162;2022-08-14T13:31:25;36.90;38.10
292;DHT22;23311;48.776;9.162;2022-08-14T13:33:56;37.10;38.20
292;DHT22;23311;48.776;9.162;2022-08-14T13:36:28;37.20;38.00
292;DHT22;23311;48.776;9.162;2022-08-14T13:39:18;36.40;38.90
292;DHT22;23311;48.776;9.162;2022-08-14T13:41:47;36.90;38.50
292;DHT22;23311;48.776;9.162;2022-08-14T13:44:25;37.50;37.80
292;DHT22;23311;48.776;9.162;2022-08-14T13:46:55;37.60;37.90
292;DHT22;23311;48.776;9.162;2022-08-14T13:49:24;37.20;38.80
292;DHT22;23311;48.776;9.162;2022-08-14T13:51:57;37.40;38.80
292;DHT22;23311;48.776;9.162;2022-08-14T13:54:45;37.90;37.60
292;DHT22;23311;48.776;9.162;2022-08-14T13:57:21;37.40;37.20
292;DHT22;23311;48.776;9.162;2022-08-14T14:00:00;37.50;36.90
292;DHT22;23311;48.776;9.162;2022-08-14T14:02:29;37.90;36.50
292;DHT22;23311;48.776;9.162;2022-08-14T14:05:02;38.00;36.40
292;DHT22;23311;48.776;9.162;2022-08-14T14:07:34;37.20;36.20
292;DHT22;23311;48.776;9.162;2022-08-14T14:10:09;36.70;36.70
292;DHT22;23311;48.776;9.162;2022-08-14T14:12:39;37.00;36.60
292;DHT22;23311;48.776;9.162;2022-08-14T14:15:09;37.40;36.40
292;DHT22;23311;48.776;9.162;2022-08-14T14:17:40;37.90;36.20
292;DHT22;23311;48.776;9.162;2022-08-14T14:20:11;37.90;36.10
292;DHT22;23311;48.776;9.162;2022-08-14T14:23:01;38.10;35.50
292;DHT22;23311;48.776;9.162;2022-08-14T14:25:40;37.90;36.10
292;DHT22;23311;48.776;9.162;2022-08-14T14:28:25;37.50;36.20
292;DHT22;23311;48.776;9.162;2022-08-14T14:30:57;37.50;36.20
292;DHT22;23311;48.776;9.162;2022-08-14T14:33:33;37.60;36.50
292;DHT22;23311;48.776;9.162;2022-08-14T14:36:19;37.50;36.90
292;DHT22;23311;48.776;9.162;2022-08-14T14:38:54;37.60;36.80
292;DHT22;23311;48.776;9.162;2022-08-14T14:41:25;37.60;36.90
292;DHT22;23311;48.776;9.162;2022-08-14T14:44:05;37.10;37.30
292;DHT22;23311;48.776;9.162;2022-08-14T14:46:36;36.90;37.30
292;DHT22;23311;48.776;9.162;2022-08-14T14:49:09;36.50;37.50
292;DHT22;23311;48.776;9.162;2022-08-14T14:51:42;36.20;37.80
292;DHT22;23311;48.776;9.162;2022-08-14T14:54:20;36.20;37.20
292;DHT22;23311;48.776;9.162;2022-08-14T14:56:59;35.90;37.70
292;DHT22;23311;48.776;9.162;2022-08-14T14:59:28;35.60;38.10
292;DHT22;23311;48.776;9.162;2022-08-14T15:02:03;35.60;38.50
292;DHT22;23311;48.776;9.162;2022-08-14T15:04:35;35.20;39.10
292;DHT22;23311;48.776;9.162;2022-08-14T15:07:04;35.00;39.30
292;DHT22;23311;48.776;9.162;2022-08-14T15:09:34;35.20;39.10
292;DHT22;23311;48.776;9.162;2022-08-14T15:12:03;34.60;39.30
292;DHT22;23311;48.776;9.162;2022-08-14T15:14:51;34.80;39.30
292;DHT22;23311;48.776;9.162;2022-08-14T15:17:24;34.50;39.40
292;DHT22;23311;48.776;9.162;2022-08-14T15:20:02;34.40;39.70
292;DHT22;23311;48.776;9.162;2022-08-14T15:22:32;34.30;39.60
292;DHT22;23311;48.776;9.162;2022-08-14T15:25:03;34.00;39.20
292;DHT22;23311;48.776;9.162;2022-08-14T15:27:32;33.80;39.80
292;DHT22;23311;48.776;9.162;2022-08-14T15:30:00;33.60;39.80
292;DHT22;23311;48.776;9.162;2022-08-14T15:32:29;33.80;40.10
292;DHT22;23311;48.776;9.162;2022-08-14T15:34:57;33.80;40.20
292;DHT22;23311;48.776;9.162;2022-08-14T15:37:28;33.90;40.20
292;DHT22;23311;48.776;9.162;2022-08-14T15:39:59;34.30;39.90
292;DHT22;23311;48.776;9.162;2022-08-14T15:42:29;34.40;39.80
292;DHT22;23311;48.776;9.162;2022-08-14T15:45:07;34.80;39.50
292;DHT22;23311;48.776;9.162;2022-08-14T15:47:37;34.40;40.00
292;DHT22;23311;48.776;9.162;2022-08-14T15:50:08;34.90;39.90
292;DHT22;23311;48.776;9.162;2022-08-14T15:52:39;35.10;39.40
292;DHT22;23311;48.776;9.162;2022-08-14T15:55:11;34.80;39.70
292;DHT22;23311;48.776;9.162;2022-08-14T15:57:42;34.80;39.50
292;DHT22;23311;48.776;9.162;2022-08-14T16:00:31;34.70;39.70
292;DHT22;23311;48.776;9.162;2022-08-14T16:03:18;34.40;39.90
292;DHT22;23311;48.776;9.162;2022-08-14T16:06:02;34.00;39.80
292;DHT22;23311;48.776;9.162;2022-08-14T16:08:31;34.20;39.70
292;DHT22;23311;48.776;9.162;2022-08-14T16:11:02;34.20;40.20
292;DHT22;23311;48.776;9.162;2022-08-14T16:13:34;33.90;40.60
292;DHT22;23311;48.776;9.162;2022-08-14T16:16:10;33.70;40.80
292;DHT22;23311;48.776;9.162;2022-08-14T16:18:59;33.70;40.90
292;DHT22;23311;48.776;9.162;2022-08-14T16:21:38;33.60;41.00
292;DHT22;23311;48.776;9.162;2022-08-14T16:24:06;33.40;41.00
292;DHT22;23311;48.776;9.162;2022-08-14T16:26:55;33.40;41.30
292;DHT22;23311;48.776;9.162;2022-08-14T16:29:29;33.60;40.90
292;DHT22;23311;48.776;9.162;2022-08-14T16:31:57;33.70;40.40
292;DHT22;23311;48.776;9.162;2022-08-14T16:34:28;33.40;40.30
292;DHT22;23311;48.776;9.162;2022-08-14T16:37:15;33.10;40.60
292;DHT22;23311;48.776;9.162;2022-08-14T16:39:45;32.80;40.50
292;DHT22;23311;48.776;9.162;2022-08-14T16:42:15;32.40;41.20
292;DHT22;23311;48.776;9.162;2022-08-14T16:45:07;32.30;41.40
292;DHT22;23311;48.776;9.162;2022-08-14T16:47:36;32.30;41.50
292;DHT22;23311;48.776;9.162;2022-08-14T16:50:06;32.60;41.10
292;DHT22;23311;48.776;9.162;2022-08-14T16:52:38;32.90;40.70
292;DHT22;23311;48.776;9.162;2022-08-14T16:55:11;33.10;40.30
292;DHT22;23311;48.776;9.162;2022-08-14T16:57:49;33.20;40.00